createdAt,value
2022-12-31T00:00:09.355Z,160.43
2022-12-31T00:01:34.428Z,149.40
2022-12-31T00:02:38.740Z,179.90
2022-12-31T00:03:41.859Z,156.75
2022-12-31T00:04:44.433Z,174.55
2022-12-31T00:05:46.914Z,167.52
2022-12-31T00:06:49.564Z,210.27
2022-12-31T00:07:52.230Z,162.02
2022-12-31T00:08:57.216Z,176.65
2022-12-31T00:09:59.575Z,177.43
2022-12-31T00:11:02.073Z,177.23
2022-12-31T00:12:04.696Z,175.65
2022-12-31T00:13:11.322Z,155.40
2022-12-31T00:14:14.371Z,163.75
2022-12-31T00:15:17.099Z,171.25
2022-12-31T00:16:25.111Z,177.98
2022-12-31T00:17:29.313Z,182.52
2022-12-31T00:18:31.624Z,144.68
2022-12-31T00:19:34.197Z,155.80
2022-12-31T00:20:41.156Z,140.48
2022-12-31T00:21:43.847Z,143.60
2022-12-31T00:22:46.260Z,144.05
2022-12-31T00:23:49.374Z,157.80
2022-12-31T00:24:51.905Z,149.52
2022-12-31T00:25:54.264Z,153.55
2022-12-31T00:26:57.404Z,137.32
2022-12-31T00:27:59.843Z,138.82
2022-12-31T00:29:02.717Z,149.80
2022-12-31T00:30:05.463Z,132.75
2022-12-31T00:31:11.419Z,143.25
2022-12-31T00:32:14.325Z,162.50
2022-12-31T00:33:16.797Z,136.13
2022-12-31T00:34:19.173Z,140.23
2022-12-31T00:35:21.667Z,144.05
2022-12-31T00:36:26.337Z,137.55
2022-12-31T00:37:28.937Z,136.70
2022-12-31T00:38:33.163Z,133.95
2022-12-31T00:39:35.648Z,140.68
2022-12-31T00:40:38.083Z,123.70
2022-12-31T00:41:40.646Z,119.05
2022-12-31T00:42:43.075Z,132.05
2022-12-31T00:43:46.610Z,117.68
2022-12-31T00:44:49.024Z,115.38
2022-12-31T00:45:51.580Z,119.57
2022-12-31T00:46:54.211Z,120.32
2022-12-31T00:47:56.636Z,107.35
2022-12-31T00:48:59.121Z,110.45
2022-12-31T00:50:01.674Z,103.55
2022-12-31T00:51:06.536Z,123.32
2022-12-31T00:52:09.116Z,114.20
2022-12-31T00:53:11.658Z,123.03
2022-12-31T00:54:17.428Z,113.75
2022-12-31T00:55:19.941Z,116.90
2022-12-31T00:56:27.312Z,115.40
2022-12-31T00:57:29.847Z,117.75
2022-12-31T00:58:33.489Z,123.57
2022-12-31T00:59:36.047Z,107.82
2022-12-31T01:00:38.963Z,98.43
2022-12-31T01:01:43.232Z,98.45
2022-12-31T01:02:46.166Z,99.55
2022-12-31T01:03:51.408Z,97.55
2022-12-31T01:04:54.110Z,94.50
2022-12-31T01:05:59.565Z,104.90
2022-12-31T01:07:03.079Z,101.43
2022-12-31T01:08:06.507Z,88.20
2022-12-31T01:09:10.456Z,86.88
2022-12-31T01:10:12.949Z,94.45
2022-12-31T01:11:19.261Z,91.05
2022-12-31T01:12:22.230Z,93.85
2022-12-31T01:13:24.644Z,95.65
2022-12-31T01:14:27.345Z,98.18
2022-12-31T01:15:35.136Z,98.78
2022-12-31T01:16:41.891Z,93.32
2022-12-31T01:17:46.395Z,90.43
2022-12-31T01:18:50.048Z,94.85
2022-12-31T01:19:52.596Z,92.07
2022-12-31T01:20:55.172Z,86.50
2022-12-31T01:21:58.421Z,102.43
2022-12-31T01:23:00.945Z,99.43
2022-12-31T01:24:03.872Z,96.80
2022-12-31T01:25:06.942Z,94.57
2022-12-31T01:26:11.577Z,83.35
2022-12-31T01:27:14.081Z,90.47
2022-12-31T01:28:16.732Z,91.82
2022-12-31T01:29:19.444Z,92.20
2022-12-31T01:30:24.479Z,86.05
2022-12-31T01:31:27.681Z,88.45
2022-12-31T01:32:30.088Z,85.72
2022-12-31T01:33:32.892Z,88.03
2022-12-31T01:34:35.430Z,90.30
2022-12-31T01:35:38.349Z,76.07
2022-12-31T01:36:40.764Z,86.45
2022-12-31T01:37:43.306Z,76.43
2022-12-31T01:38:45.744Z,76.35
2022-12-31T01:39:48.373Z,89.05
2022-12-31T01:40:50.964Z,82.55
2022-12-31T01:41:53.466Z,81.22
2022-12-31T01:42:57.137Z,82.75
2022-12-31T01:44:02.328Z,77.63
2022-12-31T01:45:11.155Z,74.30
2022-12-31T01:46:21.092Z,82.75
2022-12-31T01:47:38.214Z,81.90
2022-12-31T01:49:47.621Z,73.55
2022-12-31T01:50:50.811Z,74.57
2022-12-31T01:52:11.488Z,75.25
2022-12-31T01:53:15.627Z,84.40
2022-12-31T01:54:20.625Z,79.30
2022-12-31T01:55:37.008Z,75.93
2022-12-31T01:56:40.905Z,79.68
2022-12-31T01:57:45.785Z,96.40
2022-12-31T01:58:51.213Z,96.25
2022-12-31T01:59:55.809Z,80.07
2022-12-31T02:00:59.589Z,113.38
2022-12-31T02:02:02.829Z,86.38
2022-12-31T02:03:08.475Z,87.07
2022-12-31T02:04:15.102Z,109.22
2022-12-31T02:05:30.999Z,103.38
2022-12-31T02:06:46.168Z,101.90
2022-12-31T02:07:49.056Z,84.60
2022-12-31T02:08:51.967Z,112.30
2022-12-31T02:09:54.645Z,98.93
2022-12-31T02:10:59.514Z,156.10
2022-12-31T02:12:02.129Z,104.95
2022-12-31T02:13:04.963Z,100.55
2022-12-31T02:14:12.387Z,229.77
2022-12-31T02:15:15.252Z,176.50
2022-12-31T02:16:47.443Z,156.20
2022-12-31T02:18:14.324Z,117.53
2022-12-31T02:19:42.067Z,182.75
2022-12-31T02:20:55.391Z,113.55
2022-12-31T02:22:14.124Z,141.38
2022-12-31T02:23:19.088Z,108.47
2022-12-31T02:24:56.901Z,107.95
2022-12-31T02:26:02.440Z,146.32
2022-12-31T02:27:27.093Z,102.35
2022-12-31T02:29:03.178Z,117.75
2022-12-31T02:30:11.183Z,100.32
2022-12-31T02:31:37.457Z,125.78
2022-12-31T02:32:47.281Z,120.10
2022-12-31T02:34:04.081Z,106.28
2022-12-31T02:35:15.702Z,117.93
2022-12-31T02:36:25.144Z,119.35
2022-12-31T02:37:30.646Z,108.70
2022-12-31T02:38:42.228Z,149.68
2022-12-31T02:39:45.070Z,120.10
2022-12-31T02:40:48.545Z,210.30
2022-12-31T02:41:52.298Z,111.85
2022-12-31T02:42:55.717Z,239.85
2022-12-31T02:43:58.339Z,180.75
2022-12-31T02:45:00.879Z,224.52
2022-12-31T02:46:16.331Z,177.90
2022-12-31T02:47:31.034Z,198.93
2022-12-31T02:48:53.769Z,109.70
2022-12-31T02:49:56.464Z,105.47
2022-12-31T02:51:40.341Z,121.25
2022-12-31T02:53:01.404Z,120.20
2022-12-31T02:54:39.368Z,108.10
2022-12-31T02:56:03.368Z,152.48
2022-12-31T02:57:17.956Z,198.98
2022-12-31T02:58:49.980Z,128.63
2022-12-31T03:00:17.358Z,178.63
2022-12-31T03:01:45.362Z,201.82
2022-12-31T03:02:49.307Z,229.63
2022-12-31T03:04:11.910Z,111.97
2022-12-31T03:05:17.354Z,105.13
2022-12-31T03:06:19.917Z,188.73
2022-12-31T03:07:28.263Z,217.23
2022-12-31T03:08:31.136Z,183.43
2022-12-31T03:09:34.540Z,172.45
2022-12-31T03:10:37.394Z,196.52
2022-12-31T03:11:58.907Z,256.92
2022-12-31T03:13:01.658Z,129.60
2022-12-31T03:14:04.151Z,142.93
2022-12-31T03:15:20.144Z,155.98
2022-12-31T03:16:23.066Z,165.40
2022-12-31T03:17:26.425Z,231.60
2022-12-31T03:18:57.527Z,208.32
2022-12-31T03:20:18.974Z,122.47
2022-12-31T03:21:39.745Z,114.55
2022-12-31T03:22:43.434Z,122.53
2022-12-31T03:23:50.330Z,210.30
2022-12-31T03:25:11.056Z,134.82
2022-12-31T03:26:13.905Z,112.70
2022-12-31T03:27:17.131Z,134.57
2022-12-31T03:28:22.300Z,114.65
2022-12-31T03:29:24.765Z,118.85
2022-12-31T03:30:28.379Z,139.32
2022-12-31T03:31:30.765Z,114.50
2022-12-31T03:32:33.331Z,103.70
2022-12-31T03:33:38.322Z,118.50
2022-12-31T03:34:40.855Z,113.75
2022-12-31T03:35:45.875Z,122.35
2022-12-31T03:36:48.366Z,124.15
2022-12-31T03:37:52.056Z,105.57
2022-12-31T03:38:55.443Z,110.60
2022-12-31T03:39:58.287Z,92.32
2022-12-31T03:41:00.841Z,96.38
2022-12-31T03:42:03.435Z,93.97
2022-12-31T03:43:05.876Z,92.82
2022-12-31T03:44:08.355Z,103.50
2022-12-31T03:45:11.922Z,100.90
2022-12-31T03:46:14.507Z,111.90
2022-12-31T03:47:17.526Z,95.50
2022-12-31T03:48:22.207Z,103.63
2022-12-31T03:49:24.860Z,105.75
2022-12-31T03:50:27.627Z,117.43
2022-12-31T03:51:29.973Z,106.28
2022-12-31T03:52:32.762Z,111.13
2022-12-31T03:53:35.986Z,96.85
2022-12-31T03:54:41.068Z,148.30
2022-12-31T03:55:43.527Z,148.60
2022-12-31T03:56:48.888Z,113.70
2022-12-31T03:57:52.651Z,143.73
2022-12-31T03:58:54.933Z,103.32
2022-12-31T03:59:57.738Z,106.95
2022-12-31T04:01:00.715Z,126.30
2022-12-31T04:02:03.621Z,224.52
2022-12-31T04:03:06.382Z,124.38
2022-12-31T04:04:08.900Z,113.43
2022-12-31T04:05:12.588Z,141.55
2022-12-31T04:06:16.690Z,139.02
2022-12-31T04:07:21.755Z,147.15
2022-12-31T04:08:24.633Z,204.23
2022-12-31T04:09:27.259Z,126.97
2022-12-31T04:10:29.715Z,146.80
2022-12-31T04:11:32.493Z,114.05
2022-12-31T04:12:36.330Z,111.90
2022-12-31T04:13:38.798Z,122.53
2022-12-31T04:14:41.387Z,131.88
2022-12-31T04:15:43.887Z,117.20
2022-12-31T04:16:46.628Z,98.78
2022-12-31T04:17:49.611Z,184.90
2022-12-31T04:18:52.006Z,202.52
2022-12-31T04:19:54.557Z,107.65
2022-12-31T04:21:04.826Z,117.22
2022-12-31T04:22:07.243Z,120.28
2022-12-31T04:23:09.860Z,212.25
2022-12-31T04:24:12.326Z,111.88
2022-12-31T04:25:14.952Z,162.63
2022-12-31T04:26:17.595Z,147.27
2022-12-31T04:27:20.020Z,150.18
2022-12-31T04:28:22.586Z,124.65
2022-12-31T04:29:25.246Z,122.93
2022-12-31T04:30:27.807Z,106.90
2022-12-31T04:31:30.497Z,111.40
2022-12-31T04:32:33.013Z,115.95
2022-12-31T04:33:35.437Z,119.15
2022-12-31T04:34:38.134Z,123.43
2022-12-31T04:35:40.596Z,124.65
2022-12-31T04:36:43.120Z,124.90
2022-12-31T04:37:46.131Z,123.35
2022-12-31T04:38:48.745Z,122.63
2022-12-31T04:39:51.228Z,110.55
2022-12-31T04:41:12.527Z,111.85
2022-12-31T04:42:15.004Z,111.47
2022-12-31T04:43:17.533Z,121.07
2022-12-31T04:44:20.812Z,135.00
2022-12-31T04:45:23.440Z,111.38
2022-12-31T04:46:28.938Z,124.28
2022-12-31T04:47:31.463Z,122.88
2022-12-31T04:48:34.590Z,118.47
2022-12-31T04:49:37.184Z,131.57
2022-12-31T04:50:39.597Z,128.13
2022-12-31T04:51:42.278Z,119.80
2022-12-31T04:52:44.695Z,117.72
2022-12-31T04:53:47.629Z,117.32
2022-12-31T04:54:50.201Z,121.00
2022-12-31T04:55:53.090Z,110.20
2022-12-31T04:56:55.712Z,96.57
2022-12-31T04:57:58.352Z,110.20
2022-12-31T04:59:00.918Z,120.53
2022-12-31T05:00:04.108Z,118.07
2022-12-31T05:01:07.687Z,108.32
2022-12-31T05:02:10.411Z,113.13
2022-12-31T05:03:13.223Z,118.30
2022-12-31T05:04:19.147Z,121.00
2022-12-31T05:05:22.178Z,139.88
2022-12-31T05:06:24.731Z,137.98
2022-12-31T05:07:27.442Z,113.80
2022-12-31T05:08:30.346Z,127.30
2022-12-31T05:09:32.911Z,128.70
2022-12-31T05:10:37.263Z,121.88
2022-12-31T05:11:39.879Z,105.15
2022-12-31T05:12:42.310Z,114.82
2022-12-31T05:13:44.983Z,107.40
2022-12-31T05:14:47.468Z,104.72
2022-12-31T05:15:50.756Z,111.05
2022-12-31T05:16:53.316Z,134.07
2022-12-31T05:17:56.374Z,111.47
2022-12-31T05:18:59.143Z,108.03
2022-12-31T05:20:01.659Z,100.68
2022-12-31T05:21:04.619Z,105.65
2022-12-31T05:22:25.416Z,94.03
2022-12-31T05:23:28.274Z,82.60
2022-12-31T05:24:30.701Z,94.55
2022-12-31T05:25:33.390Z,89.50
2022-12-31T05:26:35.989Z,92.93
2022-12-31T05:27:38.611Z,90.78
2022-12-31T05:28:41.285Z,84.38
2022-12-31T05:29:43.709Z,108.55
2022-12-31T05:30:50.412Z,92.75
2022-12-31T05:31:53.121Z,95.70
2022-12-31T05:32:55.531Z,135.02
2022-12-31T05:33:58.116Z,84.35
2022-12-31T05:35:01.085Z,155.18
2022-12-31T05:36:03.896Z,86.75
2022-12-31T05:37:06.499Z,81.82
2022-12-31T05:38:09.091Z,88.43
2022-12-31T05:39:11.492Z,88.75
2022-12-31T05:40:13.928Z,107.32
2022-12-31T05:41:16.371Z,87.03
2022-12-31T05:42:18.925Z,107.07
2022-12-31T05:43:21.350Z,99.85
2022-12-31T05:44:23.914Z,129.85
2022-12-31T05:45:30.791Z,157.52
2022-12-31T05:46:33.788Z,171.38
2022-12-31T05:47:36.406Z,121.70
2022-12-31T05:48:40.259Z,120.78
2022-12-31T05:49:42.959Z,94.05
2022-12-31T05:50:45.329Z,107.00
2022-12-31T05:51:47.901Z,99.82
2022-12-31T05:52:50.602Z,96.70
2022-12-31T05:53:53.043Z,110.15
2022-12-31T05:54:55.455Z,141.35
2022-12-31T05:55:58.349Z,152.70
2022-12-31T05:57:01.475Z,83.53
2022-12-31T05:58:04.097Z,82.40
2022-12-31T05:59:06.661Z,98.82
2022-12-31T06:00:11.107Z,87.10
2022-12-31T06:01:16.583Z,86.88
2022-12-31T06:02:19.525Z,89.60
2022-12-31T06:03:22.283Z,93.75
2022-12-31T06:04:26.052Z,96.28
2022-12-31T06:05:31.278Z,94.82
2022-12-31T06:06:33.814Z,92.35
2022-12-31T06:07:36.540Z,92.43
2022-12-31T06:08:40.549Z,82.25
2022-12-31T06:09:43.079Z,96.13
2022-12-31T06:10:45.607Z,142.13
2022-12-31T06:11:48.365Z,100.72
2022-12-31T06:12:50.864Z,112.65
2022-12-31T06:13:53.500Z,96.95
2022-12-31T06:14:56.068Z,119.78
2022-12-31T06:15:58.604Z,177.55
2022-12-31T06:17:01.582Z,126.82
2022-12-31T06:18:04.073Z,93.97
2022-12-31T06:19:06.854Z,135.18
2022-12-31T06:20:13.084Z,172.00
2022-12-31T06:21:16.054Z,176.07
2022-12-31T06:22:18.753Z,185.38
2022-12-31T06:23:21.212Z,109.95
2022-12-31T06:24:23.585Z,115.95
2022-12-31T06:25:26.448Z,126.22
2022-12-31T06:26:29.048Z,178.68
2022-12-31T06:27:31.657Z,205.57
2022-12-31T06:28:34.078Z,113.45
2022-12-31T06:29:36.515Z,104.05
2022-12-31T06:30:38.998Z,102.15
2022-12-31T06:31:41.443Z,101.65
2022-12-31T06:32:43.853Z,277.95
2022-12-31T06:33:48.902Z,225.80
2022-12-31T06:34:51.270Z,100.88
2022-12-31T06:36:00.365Z,97.82
2022-12-31T06:37:03.079Z,102.68
2022-12-31T06:38:05.898Z,97.53
2022-12-31T06:39:08.282Z,205.85
2022-12-31T06:40:11.647Z,146.57
2022-12-31T06:41:15.979Z,121.63
2022-12-31T06:42:18.356Z,252.90
2022-12-31T06:43:21.277Z,127.82
2022-12-31T06:44:23.890Z,135.32
2022-12-31T06:45:26.242Z,224.32
2022-12-31T06:46:29.018Z,200.00
2022-12-31T06:47:31.757Z,121.93
2022-12-31T06:48:35.572Z,129.82
2022-12-31T06:49:37.982Z,126.70
2022-12-31T06:50:41.172Z,130.73
2022-12-31T06:51:46.325Z,125.20
2022-12-31T06:52:48.713Z,133.50
2022-12-31T06:53:52.456Z,106.60
2022-12-31T06:54:55.052Z,117.55
2022-12-31T06:55:57.919Z,106.45
2022-12-31T06:57:00.467Z,106.63
2022-12-31T06:58:02.977Z,131.52
2022-12-31T06:59:06.336Z,121.35
2022-12-31T07:00:11.014Z,90.25
2022-12-31T07:01:41.616Z,91.10
2022-12-31T07:03:04.112Z,76.28
2022-12-31T07:04:37.820Z,75.68
2022-12-31T07:05:52.716Z,76.53
2022-12-31T07:06:59.629Z,73.80
2022-12-31T07:08:09.009Z,78.32
2022-12-31T07:09:23.681Z,74.97
2022-12-31T07:11:04.643Z,78.55
2022-12-31T07:12:26.150Z,76.88
2022-12-31T07:13:43.844Z,89.78
2022-12-31T07:15:04.443Z,82.72
2022-12-31T07:16:31.224Z,86.97
2022-12-31T07:17:52.398Z,90.45
2022-12-31T07:19:19.376Z,81.80
2022-12-31T07:20:22.203Z,86.82
2022-12-31T07:21:35.219Z,91.60
2022-12-31T07:22:39.011Z,96.32
2022-12-31T07:23:42.947Z,94.22
2022-12-31T07:24:45.712Z,92.30
2022-12-31T07:25:59.963Z,92.47
2022-12-31T07:27:15.012Z,95.18
2022-12-31T07:28:36.809Z,81.07
2022-12-31T07:29:59.911Z,82.28
2022-12-31T07:31:16.451Z,71.97
2022-12-31T07:32:30.775Z,78.57
2022-12-31T07:33:52.067Z,75.60
2022-12-31T07:35:17.394Z,78.15
2022-12-31T07:36:38.291Z,79.03
2022-12-31T07:37:54.391Z,103.75
2022-12-31T07:39:10.900Z,92.82
2022-12-31T07:40:34.945Z,85.85
2022-12-31T07:41:49.843Z,86.50
2022-12-31T07:43:28.154Z,76.65
2022-12-31T07:44:36.638Z,75.63
2022-12-31T07:46:20.922Z,84.55
2022-12-31T07:47:26.257Z,74.03
2022-12-31T07:48:30.152Z,83.32
2022-12-31T07:49:34.510Z,85.80
2022-12-31T07:50:38.012Z,96.80
2022-12-31T07:51:41.567Z,88.72
2022-12-31T07:52:45.526Z,98.80
2022-12-31T07:53:48.196Z,84.00
2022-12-31T07:54:51.112Z,98.45
2022-12-31T07:56:21.649Z,118.75
2022-12-31T07:58:07.623Z,119.43
2022-12-31T07:59:30.981Z,132.02
2022-12-31T08:00:34.263Z,137.25
2022-12-31T08:01:39.422Z,118.97
2022-12-31T08:03:08.987Z,118.15
2022-12-31T08:04:34.554Z,120.82
2022-12-31T08:05:49.088Z,124.43
2022-12-31T08:07:13.007Z,120.40
2022-12-31T08:08:36.269Z,109.80
2022-12-31T08:09:58.372Z,103.93
2022-12-31T08:11:14.203Z,121.90
2022-12-31T08:12:19.612Z,112.57
2022-12-31T08:13:25.671Z,106.40
2022-12-31T08:14:29.695Z,117.60
2022-12-31T08:15:32.492Z,107.25
2022-12-31T08:16:35.205Z,93.82
2022-12-31T08:17:37.919Z,108.25
2022-12-31T08:18:41.094Z,118.15
2022-12-31T08:19:44.325Z,98.82
2022-12-31T08:21:04.782Z,114.85
2022-12-31T08:22:32.366Z,112.82
2022-12-31T08:23:53.597Z,106.85
2022-12-31T08:25:23.130Z,114.47
2022-12-31T08:26:52.601Z,104.13
2022-12-31T08:28:01.720Z,99.43
2022-12-31T08:29:22.099Z,96.28
2022-12-31T08:30:37.151Z,87.68
2022-12-31T08:32:21.288Z,83.57
2022-12-31T08:33:35.729Z,85.63
2022-12-31T08:34:57.199Z,84.55
2022-12-31T08:36:19.515Z,101.07
2022-12-31T08:37:31.945Z,101.70
2022-12-31T08:39:00.667Z,105.05
2022-12-31T08:40:37.696Z,93.18
2022-12-31T08:41:46.301Z,73.10
2022-12-31T08:43:07.637Z,78.15
2022-12-31T08:44:28.747Z,74.97
2022-12-31T08:45:42.562Z,72.38
2022-12-31T08:47:00.077Z,85.00
2022-12-31T08:48:08.494Z,84.53
2022-12-31T08:49:11.401Z,80.57
2022-12-31T08:50:16.465Z,80.43
2022-12-31T08:51:25.068Z,95.15
2022-12-31T08:52:27.803Z,87.90
2022-12-31T08:53:30.967Z,93.20
2022-12-31T08:54:33.941Z,90.32
2022-12-31T08:55:37.910Z,80.55
2022-12-31T08:57:05.690Z,89.22
2022-12-31T08:58:15.738Z,93.65
2022-12-31T08:59:36.396Z,90.65
2022-12-31T09:00:39.814Z,87.57
2022-12-31T09:02:08.304Z,93.53
2022-12-31T09:03:35.129Z,91.70
2022-12-31T09:04:52.929Z,92.63
2022-12-31T09:06:03.527Z,95.68
2022-12-31T09:07:09.689Z,97.78
2022-12-31T09:08:43.991Z,93.93
2022-12-31T09:09:52.857Z,79.00
2022-12-31T09:11:23.761Z,81.75
2022-12-31T09:12:47.543Z,88.20
2022-12-31T09:14:15.391Z,89.68
2022-12-31T09:15:34.091Z,81.57
2022-12-31T09:16:42.282Z,79.20
2022-12-31T09:17:49.319Z,82.63
2022-12-31T09:18:55.165Z,76.18
2022-12-31T09:20:02.092Z,78.60
2022-12-31T09:21:15.192Z,82.00
2022-12-31T09:22:18.891Z,85.05
2022-12-31T09:23:30.172Z,76.97
2022-12-31T09:24:35.837Z,70.97
2022-12-31T09:25:56.014Z,74.57
2022-12-31T09:27:06.343Z,71.20
2022-12-31T09:28:18.636Z,78.10
2022-12-31T09:29:42.573Z,67.32
2022-12-31T09:30:59.121Z,78.28
2022-12-31T09:32:10.716Z,80.20
2022-12-31T09:33:17.277Z,69.32
2022-12-31T09:34:52.203Z,73.47
2022-12-31T09:35:58.845Z,69.70
2022-12-31T09:37:07.266Z,63.80
2022-12-31T09:38:45.448Z,77.15
2022-12-31T09:39:48.681Z,71.60
2022-12-31T09:41:17.095Z,66.65
2022-12-31T09:42:50.525Z,72.80
2022-12-31T09:44:22.058Z,71.25
2022-12-31T09:45:51.911Z,69.78
2022-12-31T09:47:10.198Z,69.75
2022-12-31T09:48:50.304Z,75.00
2022-12-31T09:50:32.686Z,64.78
2022-12-31T09:52:04.222Z,71.43
2022-12-31T09:53:19.321Z,65.47
2022-12-31T09:54:27.673Z,69.50
2022-12-31T09:55:35.782Z,66.55
2022-12-31T09:56:42.717Z,71.65
2022-12-31T09:58:13.130Z,71.93
2022-12-31T09:59:39.669Z,70.38
2022-12-31T10:00:59.830Z,64.88
2022-12-31T10:02:39.686Z,73.82
2022-12-31T10:04:34.956Z,64.13
2022-12-31T10:06:06.009Z,75.68
2022-12-31T10:07:48.726Z,69.50
2022-12-31T10:09:45.381Z,63.33
2022-12-31T10:10:55.039Z,76.75
2022-12-31T10:12:19.221Z,74.20
2022-12-31T10:13:44.965Z,76.20
2022-12-31T10:15:35.577Z,74.20
2022-12-31T10:17:01.735Z,72.43
2022-12-31T10:18:23.988Z,71.55
2022-12-31T10:19:55.688Z,73.82
2022-12-31T10:21:33.124Z,68.47
2022-12-31T10:23:07.878Z,84.85
2022-12-31T10:24:52.082Z,114.68
2022-12-31T10:26:20.905Z,134.43
2022-12-31T10:27:39.701Z,101.13
2022-12-31T10:29:31.715Z,77.28
2022-12-31T10:32:44.226Z,70.93
2022-12-31T10:34:04.036Z,67.32
2022-12-31T10:35:37.206Z,78.15
2022-12-31T10:37:13.866Z,77.25
2022-12-31T10:38:22.254Z,78.70
2022-12-31T10:39:37.950Z,80.93
2022-12-31T10:41:16.842Z,82.10
2022-12-31T10:42:28.616Z,78.65
2022-12-31T10:44:11.324Z,81.00
2022-12-31T10:47:00.800Z,68.65
2022-12-31T10:48:51.376Z,74.05
2022-12-31T10:50:23.835Z,78.18
2022-12-31T10:51:48.206Z,71.03
2022-12-31T10:53:09.861Z,77.38
2022-12-31T10:54:32.289Z,72.60
2022-12-31T10:55:59.671Z,82.90
2022-12-31T10:57:20.864Z,77.55
2022-12-31T10:59:06.414Z,74.50
2022-12-31T11:00:12.924Z,79.07
2022-12-31T11:01:26.280Z,106.40
2022-12-31T11:02:41.178Z,124.68
2022-12-31T11:04:19.214Z,107.90
2022-12-31T11:05:49.139Z,102.15
2022-12-31T11:06:57.064Z,87.55
2022-12-31T11:08:38.227Z,88.93
2022-12-31T11:10:00.997Z,77.55
2022-12-31T11:11:13.176Z,73.75
2022-12-31T11:12:32.135Z,80.93
2022-12-31T11:13:55.127Z,76.90
2022-12-31T11:15:18.730Z,86.18
2022-12-31T11:16:32.899Z,85.80
2022-12-31T11:17:51.856Z,81.32
2022-12-31T11:19:25.109Z,73.70
2022-12-31T11:20:50.784Z,80.32
2022-12-31T11:22:08.819Z,71.60
2022-12-31T11:23:45.314Z,77.28
2022-12-31T11:25:03.819Z,75.03
2022-12-31T11:26:32.379Z,127.22
2022-12-31T11:27:55.411Z,121.55
2022-12-31T11:29:17.051Z,92.15
2022-12-31T11:30:29.757Z,81.93
2022-12-31T11:31:42.545Z,77.95
2022-12-31T11:32:56.974Z,82.55
2022-12-31T11:34:28.053Z,91.90
2022-12-31T11:36:19.251Z,76.63
2022-12-31T11:37:43.207Z,81.50
2022-12-31T11:38:59.124Z,82.63
2022-12-31T11:40:32.980Z,78.20
2022-12-31T11:41:42.982Z,80.10
2022-12-31T11:43:01.812Z,77.57
2022-12-31T11:44:32.659Z,81.25
2022-12-31T11:46:12.932Z,71.63
2022-12-31T11:48:04.352Z,84.70
2022-12-31T11:49:24.943Z,86.18
2022-12-31T11:50:35.951Z,92.97
2022-12-31T11:52:21.775Z,87.20
2022-12-31T11:53:35.071Z,82.35
2022-12-31T11:55:05.867Z,82.57
2022-12-31T11:56:25.007Z,84.85
2022-12-31T11:57:35.735Z,78.82
2022-12-31T11:58:46.735Z,87.25
2022-12-31T11:59:54.796Z,92.35
2022-12-31T12:01:08.237Z,95.05
2022-12-31T12:02:30.118Z,87.03
2022-12-31T12:03:33.399Z,95.60
2022-12-31T12:04:36.177Z,123.85
2022-12-31T12:05:40.149Z,117.22
2022-12-31T12:06:45.816Z,115.88
2022-12-31T12:07:50.479Z,136.73
2022-12-31T12:09:01.582Z,117.97
2022-12-31T12:10:17.013Z,103.57
2022-12-31T12:11:26.753Z,96.32
2022-12-31T12:12:45.823Z,108.25
2022-12-31T12:13:49.013Z,86.93
2022-12-31T12:14:55.328Z,95.78
2022-12-31T12:16:00.479Z,87.85
2022-12-31T12:17:08.818Z,81.80
2022-12-31T12:18:41.128Z,84.80
2022-12-31T12:19:54.009Z,79.82
2022-12-31T12:21:23.391Z,80.65
2022-12-31T12:22:29.183Z,85.45
2022-12-31T12:23:33.173Z,93.28
2022-12-31T12:24:35.937Z,81.55
2022-12-31T12:25:41.115Z,98.70
2022-12-31T12:26:47.189Z,99.65
2022-12-31T12:27:52.330Z,101.18
2022-12-31T12:28:56.952Z,91.05
2022-12-31T12:30:19.028Z,76.45
2022-12-31T12:31:24.259Z,97.95
2022-12-31T12:32:27.479Z,83.22
2022-12-31T12:33:42.056Z,181.15
2022-12-31T12:34:49.563Z,127.05
2022-12-31T12:35:53.124Z,87.28
2022-12-31T12:36:55.989Z,96.95
2022-12-31T12:38:00.653Z,92.53
2022-12-31T12:39:05.773Z,91.85
2022-12-31T12:40:20.642Z,91.15
2022-12-31T12:41:26.657Z,94.47
2022-12-31T12:42:30.308Z,96.55
2022-12-31T12:43:36.019Z,97.35
2022-12-31T12:44:40.345Z,98.43
2022-12-31T12:45:52.224Z,107.95
2022-12-31T12:46:56.370Z,104.15
2022-12-31T12:48:07.983Z,99.05
2022-12-31T12:49:25.835Z,91.32
2022-12-31T12:50:46.490Z,94.07
2022-12-31T12:52:02.021Z,94.32
2022-12-31T12:53:37.431Z,91.68
2022-12-31T12:55:04.784Z,96.55
2022-12-31T12:56:25.511Z,99.40
2022-12-31T12:57:42.761Z,99.07
2022-12-31T12:59:35.550Z,93.07
2022-12-31T13:01:03.224Z,85.47
2022-12-31T13:02:59.158Z,98.50
2022-12-31T13:04:33.571Z,86.20
2022-12-31T13:05:46.073Z,98.13
2022-12-31T13:07:12.618Z,97.57
2022-12-31T13:08:42.755Z,101.18
2022-12-31T13:09:54.594Z,103.60
2022-12-31T13:11:16.150Z,86.25
2022-12-31T13:12:56.821Z,97.47
2022-12-31T13:14:30.121Z,101.70
2022-12-31T13:16:04.762Z,93.18
2022-12-31T13:17:29.167Z,86.78
2022-12-31T13:18:44.338Z,77.53
2022-12-31T13:20:42.620Z,74.63
2022-12-31T13:22:20.667Z,75.32
2022-12-31T13:23:50.198Z,98.57
2022-12-31T13:25:07.325Z,92.47
2022-12-31T13:26:52.638Z,77.88
2022-12-31T13:28:08.463Z,77.20
2022-12-31T13:29:27.299Z,76.47
2022-12-31T13:30:43.101Z,72.22
2022-12-31T13:31:47.560Z,77.20
2022-12-31T13:33:21.028Z,78.75
2022-12-31T13:35:57.127Z,76.78
2022-12-31T13:37:10.592Z,83.70
2022-12-31T13:38:24.529Z,83.32
2022-12-31T13:39:36.616Z,79.45
2022-12-31T13:41:14.448Z,77.50
2022-12-31T13:42:25.213Z,75.32
2022-12-31T13:43:30.879Z,79.97
2022-12-31T13:44:39.764Z,75.07
2022-12-31T13:45:49.000Z,82.50
2022-12-31T13:46:55.780Z,75.47
2022-12-31T13:48:06.492Z,84.78
2022-12-31T13:49:42.473Z,84.72
2022-12-31T13:50:59.737Z,81.82
2022-12-31T13:52:50.789Z,80.95
2022-12-31T13:54:08.916Z,75.25
2022-12-31T13:55:28.929Z,88.40
2022-12-31T13:56:37.414Z,90.65
2022-12-31T13:57:49.651Z,91.53
2022-12-31T13:59:05.744Z,81.35
2022-12-31T14:01:00.662Z,82.30
2022-12-31T14:02:25.623Z,77.10
2022-12-31T14:03:56.124Z,82.10
2022-12-31T14:05:19.696Z,83.28
2022-12-31T14:07:04.150Z,83.82
2022-12-31T14:08:07.247Z,86.60
2022-12-31T14:09:18.189Z,78.07
2022-12-31T14:10:30.362Z,99.78
2022-12-31T14:11:48.306Z,92.57
2022-12-31T14:13:03.521Z,84.03
2022-12-31T14:14:34.068Z,89.88
2022-12-31T14:15:46.525Z,80.65
2022-12-31T14:17:22.839Z,82.97
2022-12-31T14:18:51.657Z,79.40
2022-12-31T14:20:04.996Z,73.75
2022-12-31T14:21:46.421Z,88.82
2022-12-31T14:23:11.024Z,81.30
2022-12-31T14:24:23.367Z,73.75
2022-12-31T14:25:41.256Z,77.22
2022-12-31T14:26:50.736Z,72.25
2022-12-31T14:28:00.700Z,80.25
2022-12-31T14:29:24.799Z,79.38
2022-12-31T14:30:32.989Z,74.65
2022-12-31T14:31:52.149Z,87.72
2022-12-31T14:33:13.398Z,88.25
2022-12-31T14:34:56.472Z,118.15
2022-12-31T14:36:18.775Z,99.68
2022-12-31T14:38:07.843Z,81.47
2022-12-31T14:39:35.937Z,77.68
2022-12-31T14:40:57.255Z,91.25
2022-12-31T14:42:30.937Z,91.85
2022-12-31T14:43:54.552Z,101.55
2022-12-31T14:45:22.033Z,112.07
2022-12-31T14:46:59.317Z,88.80
2022-12-31T14:48:29.485Z,92.70
2022-12-31T14:49:57.625Z,77.75
2022-12-31T14:51:05.359Z,80.95
2022-12-31T14:52:12.698Z,82.72
2022-12-31T14:53:27.177Z,81.90
2022-12-31T14:54:36.568Z,80.28
2022-12-31T14:55:56.413Z,87.35
2022-12-31T14:57:23.660Z,94.72
2022-12-31T14:58:40.281Z,112.53
2022-12-31T15:00:13.242Z,112.85
2022-12-31T15:02:35.563Z,82.22
2022-12-31T15:03:46.104Z,91.85
2022-12-31T15:04:49.055Z,92.32
2022-12-31T15:06:40.959Z,85.25
2022-12-31T15:08:17.302Z,85.72
2022-12-31T15:09:43.870Z,80.63
2022-12-31T15:11:12.422Z,89.22
2022-12-31T15:12:48.285Z,88.72
2022-12-31T15:15:25.768Z,84.28
2022-12-31T15:16:31.476Z,81.28
2022-12-31T15:18:28.529Z,87.45
2022-12-31T15:20:11.430Z,87.88
2022-12-31T15:21:47.126Z,93.25
2022-12-31T15:22:51.259Z,83.68
2022-12-31T15:24:57.073Z,87.90
2022-12-31T15:26:04.267Z,100.45
2022-12-31T15:27:23.795Z,96.70
2022-12-31T15:28:40.120Z,96.57
2022-12-31T15:30:12.264Z,99.38